createdAt,value
2019-05-07T00:01:59.558Z,1.80
2019-05-07T00:04:30.523Z,1.47
2019-05-07T00:07:02.377Z,1.27
2019-05-07T00:09:33.868Z,1.43
2019-05-07T00:12:05.321Z,1.53
2019-05-07T00:14:36.988Z,0.90
2019-05-07T00:17:08.033Z,1.70
2019-05-07T00:19:39.130Z,1.13
2019-05-07T00:22:12.392Z,1.17
2019-05-07T00:24:42.835Z,1.17
2019-05-07T00:27:13.818Z,1.53
2019-05-07T00:29:44.690Z,1.20
2019-05-07T00:32:15.843Z,1.30
2019-05-07T00:34:51.303Z,1.30
2019-05-07T00:37:46.423Z,1.50
2019-05-07T00:40:36.934Z,1.33
2019-05-07T00:43:23.904Z,1.53
2019-05-07T00:46:16.743Z,1.80
2019-05-07T00:48:47.750Z,1.63
2019-05-07T00:51:35.293Z,1.77
2019-05-07T00:54:07.678Z,1.47
2019-05-07T00:56:38.720Z,1.53
2019-05-07T00:59:09.594Z,1.70
2019-05-07T01:01:43.076Z,2.03
2019-05-07T01:04:13.918Z,1.50
2019-05-07T01:06:45.413Z,2.00
2019-05-07T01:09:16.223Z,2.00
2019-05-07T01:11:47.103Z,1.90
2019-05-07T01:14:18.213Z,1.80
2019-05-07T01:16:49.513Z,1.93
2019-05-07T01:19:21.946Z,1.73
2019-05-07T01:21:53.229Z,2.23
2019-05-07T01:24:24.350Z,1.77
2019-05-07T01:26:55.525Z,1.57
2019-05-07T01:29:26.771Z,1.47
2019-05-07T01:32:03.343Z,1.73
2019-05-07T01:34:52.479Z,2.17
2019-05-07T01:37:23.818Z,1.50
2019-05-07T01:39:54.953Z,1.50
2019-05-07T01:42:26.123Z,1.60
2019-05-07T01:44:57.688Z,1.63
2019-05-07T01:47:29.243Z,1.20
2019-05-07T01:50:02.786Z,1.30
2019-05-07T01:52:33.306Z,1.20
2019-05-07T01:55:04.578Z,1.70
2019-05-07T01:57:35.433Z,1.40
2019-05-07T02:00:07.718Z,1.37
2019-05-07T02:02:52.034Z,1.43
2019-05-07T02:05:47.863Z,1.70
2019-05-07T02:08:38.543Z,1.57
2019-05-07T02:11:12.766Z,2.20
2019-05-07T02:13:43.792Z,2.40
2019-05-07T02:16:15.013Z,1.83
2019-05-07T02:18:46.024Z,1.77
2019-05-07T02:21:17.184Z,1.87
2019-05-07T02:23:47.958Z,2.17
2019-05-07T02:26:18.868Z,2.23
2019-05-07T02:28:51.755Z,1.97
2019-05-07T02:31:23.282Z,1.77
2019-05-07T02:33:54.430Z,2.33
2019-05-07T02:36:25.298Z,2.10
2019-05-07T02:39:14.965Z,2.03
2019-05-07T02:41:46.155Z,2.30
2019-05-07T02:44:17.257Z,2.03
2019-05-07T02:47:04.074Z,2.43
2019-05-07T02:49:53.727Z,2.53
2019-05-07T02:52:43.782Z,2.30
2019-05-07T02:55:22.978Z,1.90
2019-05-07T02:57:58.708Z,2.10
2019-05-07T03:00:29.475Z,2.33
2019-05-07T03:03:03.775Z,2.50
2019-05-07T03:05:34.993Z,2.10
2019-05-07T03:08:06.683Z,2.40
2019-05-07T03:10:37.556Z,2.33
2019-05-07T03:13:08.366Z,2.83
2019-05-07T03:15:42.857Z,2.70
2019-05-07T03:18:13.772Z,2.90
2019-05-07T03:20:59.096Z,2.47
2019-05-07T03:23:36.084Z,2.47
2019-05-07T03:26:13.924Z,3.00
2019-05-07T03:28:55.813Z,3.07
2019-05-07T03:31:36.182Z,2.70
2019-05-07T03:34:17.584Z,3.03
2019-05-07T03:36:55.731Z,3.13
2019-05-07T03:39:24.110Z,3.30
2019-05-07T03:41:55.235Z,3.40
2019-05-07T03:44:47.109Z,3.30
2019-05-07T03:47:23.738Z,3.23
2019-05-07T03:49:54.104Z,4.27
2019-05-07T03:52:25.454Z,3.73
2019-05-07T03:54:56.282Z,3.87
2019-05-07T03:57:27.564Z,4.80
2019-05-07T03:59:58.669Z,4.33
2019-05-07T04:02:32.832Z,4.13
2019-05-07T04:05:04.403Z,4.77
2019-05-07T04:07:35.530Z,4.00
2019-05-07T04:10:10.008Z,4.60
2019-05-07T04:12:39.713Z,4.37
2019-05-07T04:15:13.812Z,5.10
2019-05-07T04:17:43.703Z,5.17
2019-05-07T04:20:15.034Z,5.33
2019-05-07T04:22:46.293Z,5.07
2019-05-07T04:25:43.522Z,5.43
2019-05-07T04:28:33.703Z,4.87
2019-05-07T04:31:05.654Z,5.50
2019-05-07T04:33:40.149Z,5.70
2019-05-07T04:36:34.130Z,5.00
2019-05-07T04:39:04.739Z,5.23
2019-05-07T04:41:36.271Z,5.37
2019-05-07T04:44:07.140Z,4.70
2019-05-07T04:46:38.002Z,4.67
2019-05-07T04:49:08.889Z,4.33
2019-05-07T04:51:48.200Z,5.10
2019-05-07T04:54:19.074Z,4.43
2019-05-07T04:56:52.848Z,4.10
2019-05-07T04:59:23.665Z,4.87
2019-05-07T05:02:03.849Z,4.57
2019-05-07T05:04:34.908Z,6.90
2019-05-07T05:07:06.414Z,6.20
2019-05-07T05:09:37.200Z,7.60
2019-05-07T05:12:08.154Z,12.23
2019-05-07T05:14:39.215Z,5.30
2019-05-07T05:17:10.251Z,6.03
2019-05-07T05:19:41.018Z,12.67
2019-05-07T05:22:33.208Z,10.30
2019-05-07T05:25:22.605Z,4.30
2019-05-07T05:27:53.003Z,5.67
2019-05-07T05:30:39.649Z,5.17
2019-05-07T05:33:12.624Z,6.20
2019-05-07T05:35:43.280Z,6.07
2019-05-07T05:38:14.359Z,4.07
2019-05-07T05:40:45.488Z,5.63
2019-05-07T05:43:23.198Z,8.17
2019-05-07T05:45:56.360Z,7.20
2019-05-07T05:48:27.183Z,16.50
2019-05-07T05:51:15.214Z,7.13
2019-05-07T05:53:54.148Z,8.90
2019-05-07T05:56:36.285Z,7.60
2019-05-07T05:59:47.395Z,24.03
2019-05-07T06:02:29.553Z,12.40
2019-05-07T06:05:34.621Z,7.13
2019-05-07T06:08:43.411Z,8.37
2019-05-07T06:11:27.784Z,5.80
2019-05-07T06:14:23.158Z,7.43
2019-05-07T06:17:02.983Z,7.20
2019-05-07T06:19:48.884Z,6.87
2019-05-07T06:22:52.764Z,4.80
2019-05-07T06:25:24.918Z,4.97
2019-05-07T06:27:56.519Z,7.60
2019-05-07T06:30:27.346Z,6.67
2019-05-07T06:32:58.690Z,5.20
2019-05-07T06:35:29.479Z,5.60
2019-05-07T06:38:02.754Z,6.07
2019-05-07T06:40:45.754Z,6.03
2019-05-07T06:43:32.516Z,5.73
2019-05-07T06:46:04.199Z,6.57
2019-05-07T06:48:42.223Z,6.10
2019-05-07T06:51:09.029Z,6.10
2019-05-07T06:53:42.109Z,6.37
2019-05-07T06:56:12.359Z,6.47
2019-05-07T06:58:58.280Z,6.80
2019-05-07T07:01:52.827Z,6.63
2019-05-07T07:04:52.001Z,6.10
2019-05-07T07:07:36.507Z,5.60
2019-05-07T07:10:18.559Z,4.90
2019-05-07T07:12:49.750Z,5.77
2019-05-07T07:15:23.070Z,5.43
2019-05-07T07:17:53.669Z,5.07
2019-05-07T07:20:25.134Z,5.03
2019-05-07T07:22:56.200Z,4.27
2019-05-07T07:25:28.840Z,5.00
2019-05-07T07:27:59.641Z,4.97
2019-05-07T07:30:52.740Z,5.47
2019-05-07T07:33:26.424Z,5.27
2019-05-07T07:35:57.545Z,4.83
2019-05-07T07:38:35.731Z,5.30
2019-05-07T07:41:17.364Z,5.87
2019-05-07T07:43:48.419Z,6.13
2019-05-07T07:46:19.210Z,6.00
2019-05-07T07:49:05.414Z,6.33
2019-05-07T07:51:37.239Z,5.53
2019-05-07T07:53:56.141Z,5.80
2019-05-07T07:56:48.388Z,5.80
2019-05-07T07:59:23.449Z,6.50
2019-05-07T08:02:22.978Z,6.00
2019-05-07T08:04:53.964Z,6.10
2019-05-07T08:07:25.309Z,5.90
2019-05-07T08:09:56.679Z,5.93
2019-05-07T08:12:28.114Z,6.27
2019-05-07T08:15:14.657Z,5.93
2019-05-07T08:17:32.622Z,5.87
2019-05-07T08:20:03.776Z,6.27
2019-05-07T08:22:35.139Z,6.63
2019-05-07T08:25:06.674Z,7.30
2019-05-07T08:27:37.806Z,6.30
2019-05-07T08:30:11.842Z,6.43
2019-05-07T08:32:52.950Z,6.43
2019-05-07T08:35:37.144Z,6.50
2019-05-07T08:38:08.634Z,7.67
2019-05-07T08:40:41.775Z,6.77
2019-05-07T08:43:13.114Z,6.90
2019-05-07T08:45:56.575Z,6.20
2019-05-07T08:48:32.759Z,6.73
2019-05-07T08:51:03.565Z,6.87
2019-05-07T08:53:34.625Z,6.93
2019-05-07T08:56:05.939Z,6.87
2019-05-07T08:58:37.194Z,7.00
2019-05-07T09:01:08.423Z,7.00
2019-05-07T09:03:45.499Z,6.37
2019-05-07T09:06:18.309Z,6.60
2019-05-07T09:08:50.016Z,6.60
2019-05-07T09:11:23.022Z,6.63
2019-05-07T09:13:53.829Z,6.57
2019-05-07T09:16:24.723Z,6.77
2019-05-07T09:18:55.499Z,6.13
2019-05-07T09:21:26.334Z,6.60
2019-05-07T09:23:58.523Z,6.80
2019-05-07T09:26:38.643Z,6.30
2019-05-07T09:29:22.166Z,6.70
2019-05-07T09:32:22.587Z,6.63
2019-05-07T09:34:52.631Z,7.07
2019-05-07T09:37:26.685Z,7.17
2019-05-07T09:39:57.581Z,6.70
2019-05-07T09:42:28.994Z,7.07
2019-05-07T09:45:01.757Z,6.43
2019-05-07T09:47:32.686Z,6.97
2019-05-07T09:50:07.858Z,6.90
2019-05-07T09:52:36.774Z,7.30
2019-05-07T09:55:16.684Z,7.40
2019-05-07T09:57:42.493Z,7.30
2019-05-07T10:00:14.743Z,7.43
2019-05-07T10:02:46.288Z,5.80
2019-05-07T10:05:17.778Z,5.93
2019-05-07T10:07:49.003Z,7.00
2019-05-07T10:10:19.783Z,7.37
2019-05-07T10:13:01.709Z,5.90
2019-05-07T10:15:33.097Z,6.50
2019-05-07T10:18:12.439Z,5.77
2019-05-07T10:20:44.047Z,5.93
2019-05-07T10:23:22.927Z,6.10
2019-05-07T10:25:58.394Z,6.03
2019-05-07T10:28:29.443Z,6.03
2019-05-07T10:31:00.609Z,6.93
2019-05-07T10:33:32.092Z,6.17
2019-05-07T10:36:03.484Z,5.90
2019-05-07T10:38:35.130Z,5.90
2019-05-07T10:41:05.914Z,5.53
2019-05-07T10:43:37.462Z,4.80
2019-05-07T10:46:39.418Z,5.77
2019-05-07T10:49:16.953Z,5.50
2019-05-07T10:51:48.183Z,5.83
2019-05-07T10:54:19.473Z,5.97
2019-05-07T10:56:52.299Z,6.60
2019-05-07T10:59:23.313Z,6.03
2019-05-07T11:02:02.313Z,6.07
2019-05-07T11:04:42.119Z,5.17
2019-05-07T11:07:06.733Z,6.13
2019-05-07T11:09:37.903Z,5.63
2019-05-07T11:12:09.318Z,6.33
2019-05-07T11:14:40.498Z,6.07
2019-05-07T11:17:32.525Z,6.23
2019-05-07T11:20:03.298Z,5.73
2019-05-07T11:22:34.353Z,5.93
2019-05-07T11:25:05.285Z,5.87
2019-05-07T11:27:36.398Z,6.03
2019-05-07T11:30:07.703Z,5.80
2019-05-07T11:32:38.813Z,5.70
2019-05-07T11:35:11.785Z,5.50
2019-05-07T11:37:44.335Z,6.40
2019-05-07T11:40:15.943Z,6.30
2019-05-07T11:43:05.329Z,5.43
2019-05-07T11:46:02.021Z,5.67
2019-05-07T11:48:36.319Z,4.37
2019-05-07T11:51:25.651Z,4.63
2019-05-07T11:54:12.722Z,5.00
2019-05-07T11:56:43.843Z,4.63
2019-05-07T11:59:14.743Z,4.70
2019-05-07T12:01:52.716Z,4.60
2019-05-07T12:04:23.623Z,4.77
2019-05-07T12:06:55.278Z,4.90
2019-05-07T12:09:26.068Z,4.53
2019-05-07T12:11:56.829Z,4.63
2019-05-07T12:14:31.774Z,4.07
2019-05-07T12:17:02.574Z,4.03
2019-05-07T12:19:33.161Z,4.00
2019-05-07T12:22:04.739Z,3.87
2019-05-07T12:24:35.643Z,3.70
2019-05-07T12:27:06.470Z,3.87
2019-05-07T12:29:37.569Z,3.77
2019-05-07T12:32:27.073Z,3.70
2019-05-07T12:35:02.263Z,3.10
2019-05-07T12:37:33.399Z,2.83
2019-05-07T12:40:04.288Z,3.00
2019-05-07T12:42:35.268Z,2.90
2019-05-07T12:45:06.548Z,2.87
2019-05-07T12:47:37.433Z,2.43
2019-05-07T12:50:08.763Z,2.63
2019-05-07T12:52:53.261Z,2.33
2019-05-07T12:55:28.633Z,2.30
2019-05-07T12:58:02.192Z,2.80
2019-05-07T13:01:03.009Z,2.70
2019-05-07T13:04:10.504Z,2.50
2019-05-07T13:06:49.285Z,2.20
2019-05-07T13:09:21.939Z,2.20
2019-05-07T13:11:52.839Z,2.13
2019-05-07T13:14:23.823Z,2.20
2019-05-07T13:16:54.777Z,2.70
2019-05-07T13:19:25.550Z,1.77
2019-05-07T13:21:56.300Z,1.80
2019-05-07T13:24:27.485Z,1.73
2019-05-07T13:26:58.283Z,1.13
2019-05-07T13:29:29.103Z,1.60
2019-05-07T13:32:02.946Z,1.57
2019-05-07T13:34:34.328Z,1.70
2019-05-07T13:37:12.762Z,1.47
2019-05-07T13:39:49.638Z,1.80
2019-05-07T13:42:38.054Z,1.37
2019-05-07T13:45:16.680Z,1.60
2019-05-07T13:47:51.805Z,1.77
2019-05-07T13:50:23.144Z,1.60
2019-05-07T13:52:54.273Z,2.73
2019-05-07T13:55:25.084Z,1.50
2019-05-07T13:57:55.748Z,0.90
2019-05-07T14:00:34.308Z,1.67
2019-05-07T14:03:05.513Z,1.47
2019-05-07T14:05:36.383Z,1.00
2019-05-07T14:08:07.738Z,1.23
2019-05-07T14:10:38.533Z,1.80
2019-05-07T14:13:16.680Z,1.80
2019-05-07T14:15:43.782Z,1.17
2019-05-07T14:18:14.549Z,1.43
2019-05-07T14:20:45.283Z,1.50
2019-05-07T14:23:16.040Z,1.60
2019-05-07T14:25:46.833Z,1.50
2019-05-07T14:28:17.553Z,2.33
2019-05-07T14:30:48.513Z,1.30
2019-05-07T14:33:37.999Z,1.20
2019-05-07T14:36:13.503Z,1.60
2019-05-07T14:38:46.977Z,2.00
2019-05-07T14:41:17.863Z,1.20
2019-05-07T14:43:54.043Z,1.63
2019-05-07T14:46:25.005Z,1.53
2019-05-07T14:48:56.038Z,1.47
2019-05-07T14:51:26.998Z,1.90
2019-05-07T14:53:57.838Z,1.50
2019-05-07T14:56:28.713Z,1.77
2019-05-07T14:58:59.583Z,1.47
2019-05-07T15:01:30.393Z,1.40
2019-05-07T15:04:02.255Z,1.90
2019-05-07T15:06:33.204Z,1.80
2019-05-07T15:09:05.638Z,1.63
2019-05-07T15:11:36.958Z,1.57
2019-05-07T15:14:08.108Z,1.60
2019-05-07T15:16:39.043Z,1.50
2019-05-07T15:19:09.943Z,1.90
2019-05-07T15:21:42.638Z,1.63
2019-05-07T15:24:15.038Z,2.17
2019-05-07T15:26:46.149Z,2.20
2019-05-07T15:29:17.188Z,1.60
2019-05-07T15:32:08.115Z,1.30
2019-05-07T15:34:39.103Z,1.80
2019-05-07T15:37:12.140Z,1.27
2019-05-07T15:39:42.559Z,1.10
2019-05-07T15:42:13.346Z,1.93
2019-05-07T15:44:44.085Z,2.00
2019-05-07T15:47:22.150Z,3.20
2019-05-07T15:49:52.343Z,1.50
2019-05-07T15:52:51.472Z,1.77
2019-05-07T15:55:16.460Z,1.50
2019-05-07T15:57:47.554Z,1.17
2019-05-07T16:00:21.795Z,1.30
2019-05-07T16:02:56.794Z,1.40
2019-05-07T16:05:27.610Z,1.30
2019-05-07T16:07:58.394Z,2.30
2019-05-07T16:10:29.159Z,1.30
2019-05-07T16:13:00.039Z,1.47
2019-05-07T16:15:31.995Z,1.33
2019-05-07T16:18:06.740Z,2.27
2019-05-07T16:20:37.630Z,2.30
2019-05-07T16:23:14.695Z,2.90
2019-05-07T16:25:42.235Z,2.17
2019-05-07T16:28:13.144Z,2.27
2019-05-07T16:30:44.113Z,2.77
2019-05-07T16:33:15.091Z,2.40
2019-05-07T16:35:45.983Z,1.90
2019-05-07T16:38:18.190Z,2.20
2019-05-07T16:40:49.214Z,1.87
2019-05-07T16:43:21.971Z,2.20
2019-05-07T16:45:52.449Z,2.60
2019-05-07T16:48:23.370Z,2.40
2019-05-07T16:50:54.210Z,2.63
2019-05-07T16:53:29.332Z,2.93
2019-05-07T16:55:57.464Z,2.10
2019-05-07T16:58:42.774Z,1.70
2019-05-07T17:01:13.998Z,1.47
2019-05-07T17:03:52.139Z,1.53
2019-05-07T17:06:25.187Z,1.43
2019-05-07T17:09:02.791Z,1.10
2019-05-07T17:11:33.774Z,1.20
2019-05-07T17:14:04.609Z,1.63
2019-05-07T17:16:35.424Z,1.37
2019-05-07T17:19:06.480Z,1.10
2019-05-07T17:21:37.374Z,1.20
2019-05-07T17:24:08.128Z,2.00
2019-05-07T17:26:39.124Z,1.33
2019-05-07T17:29:11.942Z,1.27
2019-05-07T17:31:42.697Z,1.50
2019-05-07T17:34:13.654Z,2.67
2019-05-07T17:36:44.649Z,2.10
2019-05-07T17:39:15.528Z,1.70
2019-05-07T17:41:46.305Z,1.47
2019-05-07T17:44:17.063Z,1.13
2019-05-07T17:46:47.829Z,2.03
2019-05-07T17:49:18.609Z,1.70
2019-05-07T17:51:49.495Z,1.63
2019-05-07T17:54:22.319Z,1.20
2019-05-07T17:56:52.906Z,1.10
2019-05-07T17:59:23.748Z,1.20
2019-05-07T18:02:12.144Z,1.27
2019-05-07T18:04:50.867Z,1.40
2019-05-07T18:07:18.050Z,1.57
2019-05-07T18:09:48.889Z,1.57
2019-05-07T18:12:19.643Z,1.73
2019-05-07T18:14:52.673Z,1.53
2019-05-07T18:17:37.573Z,1.17
2019-05-07T18:20:08.724Z,1.33
2019-05-07T18:22:40.049Z,1.10
2019-05-07T18:25:12.426Z,1.70
2019-05-07T18:27:43.475Z,1.30
2019-05-07T18:30:14.387Z,1.53
2019-05-07T18:32:51.873Z,1.83
2019-05-07T18:35:23.065Z,1.57
2019-05-07T18:37:54.185Z,1.63
2019-05-07T18:40:25.463Z,1.83
2019-05-07T18:42:56.743Z,1.30
2019-05-07T18:45:27.569Z,1.30
2019-05-07T18:47:58.534Z,1.90
2019-05-07T18:50:29.433Z,1.60
2019-05-07T18:53:02.729Z,1.50
2019-05-07T18:55:34.354Z,1.33
2019-05-07T18:58:05.589Z,1.50
2019-05-07T19:00:39.844Z,2.10
2019-05-07T19:03:10.889Z,1.27
2019-05-07T19:05:42.413Z,1.77
2019-05-07T19:08:13.514Z,1.53
2019-05-07T19:10:44.409Z,1.50
2019-05-07T19:13:15.466Z,1.80
2019-05-07T19:15:46.483Z,2.10
2019-05-07T19:18:17.915Z,1.83
2019-05-07T19:20:49.308Z,1.70
2019-05-07T19:23:22.323Z,1.70
2019-05-07T19:25:54.114Z,1.70
2019-05-07T19:28:25.066Z,2.10
2019-05-07T19:30:55.863Z,2.57
2019-05-07T19:33:27.375Z,1.53
2019-05-07T19:35:58.378Z,2.17
2019-05-07T19:38:29.186Z,2.50
2019-05-07T19:41:02.038Z,2.13
2019-05-07T19:43:32.915Z,1.97
2019-05-07T19:46:05.143Z,2.10
2019-05-07T19:48:35.799Z,1.90
2019-05-07T19:51:06.883Z,2.37
2019-05-07T19:53:37.579Z,1.70
2019-05-07T19:56:21.935Z,2.07
2019-05-07T19:58:53.293Z,1.90
2019-05-07T20:01:29.004Z,1.47
2019-05-07T20:03:59.974Z,2.60
2019-05-07T20:06:32.743Z,2.73
2019-05-07T20:09:12.019Z,1.93
2019-05-07T20:11:43.554Z,1.70
2019-05-07T20:14:14.499Z,1.90
2019-05-07T20:16:45.344Z,1.97
2019-05-07T20:19:16.568Z,1.97
2019-05-07T20:21:47.804Z,2.17
2019-05-07T20:24:18.775Z,1.97
2019-05-07T20:26:49.755Z,2.73
2019-05-07T20:29:22.721Z,2.60
2019-05-07T20:31:53.361Z,2.23
2019-05-07T20:34:24.285Z,2.10
2019-05-07T20:36:56.068Z,2.40
2019-05-07T20:39:27.024Z,1.63
2019-05-07T20:41:58.854Z,1.90
2019-05-07T20:44:32.376Z,1.53
2019-05-07T20:47:03.180Z,1.77
2019-05-07T20:49:34.143Z,1.80
2019-05-07T20:52:05.279Z,1.80
2019-05-07T20:54:44.299Z,1.73
2019-05-07T20:57:24.244Z,2.00
2019-05-07T20:59:55.649Z,2.33
2019-05-07T21:02:41.114Z,2.10
2019-05-07T21:04:59.663Z,2.20
2019-05-07T21:07:32.668Z,2.17
2019-05-07T21:10:02.898Z,2.40
2019-05-07T21:12:33.848Z,2.20
2019-05-07T21:15:04.574Z,2.00
2019-05-07T21:17:35.642Z,2.53
2019-05-07T21:20:08.180Z,2.50
2019-05-07T21:22:38.927Z,2.20
2019-05-07T21:25:11.896Z,2.20
2019-05-07T21:27:43.177Z,2.77
2019-05-07T21:30:17.382Z,2.70
2019-05-07T21:32:46.623Z,3.30
2019-05-07T21:35:17.393Z,2.20
2019-05-07T21:37:48.224Z,3.13
2019-05-07T21:40:19.063Z,4.57
2019-05-07T21:42:51.951Z,2.27
2019-05-07T21:45:23.874Z,2.63
2019-05-07T21:47:54.658Z,2.60
2019-05-07T21:50:25.451Z,2.67
2019-05-07T21:53:02.843Z,3.13
2019-05-07T21:55:41.799Z,3.30
2019-05-07T21:58:29.423Z,3.23
2019-05-07T22:01:04.015Z,2.93
2019-05-07T22:03:35.076Z,3.33
2019-05-07T22:06:05.943Z,3.27
2019-05-07T22:08:36.733Z,3.17
2019-05-07T22:11:07.574Z,3.37
2019-05-07T22:13:38.358Z,3.23
2019-05-07T22:16:09.068Z,3.27
2019-05-07T22:18:42.474Z,2.73
2019-05-07T22:21:12.683Z,2.70
2019-05-07T22:23:43.643Z,2.67
2019-05-07T22:26:22.921Z,3.00
2019-05-07T22:28:46.723Z,3.20
2019-05-07T22:31:30.374Z,2.87
2019-05-07T22:34:14.080Z,3.00
2019-05-07T22:36:45.623Z,2.73
2019-05-07T22:39:16.618Z,3.03
2019-05-07T22:41:47.939Z,3.10
2019-05-07T22:44:18.843Z,2.80
2019-05-07T22:46:50.093Z,3.00
2019-05-07T22:49:22.723Z,3.20
2019-05-07T22:51:54.920Z,2.80
2019-05-07T22:54:25.983Z,2.57
2019-05-07T22:57:13.925Z,2.57
2019-05-07T22:59:44.273Z,2.70
2019-05-07T23:02:15.126Z,2.50
2019-05-07T23:04:46.149Z,2.67
2019-05-07T23:07:16.806Z,3.20
2019-05-07T23:09:47.778Z,2.50
2019-05-07T23:12:18.648Z,2.33
2019-05-07T23:14:51.459Z,2.60
2019-05-07T23:17:22.198Z,2.70
2019-05-07T23:19:55.127Z,2.77
2019-05-07T23:22:25.693Z,2.80
2019-05-07T23:24:56.493Z,2.67
2019-05-07T23:27:27.307Z,2.60
2019-05-07T23:29:58.083Z,2.93
2019-05-07T23:32:28.863Z,3.03
2019-05-07T23:35:01.831Z,3.83
2019-05-07T23:37:33.145Z,3.43
2019-05-07T23:40:08.991Z,3.43
2019-05-07T23:42:42.380Z,3.33
2019-05-07T23:45:13.989Z,3.80
2019-05-07T23:47:44.843Z,2.97
2019-05-07T23:50:15.693Z,2.90
2019-05-07T23:52:46.683Z,3.03
2019-05-07T23:55:17.523Z,3.40
2019-05-07T23:57:48.378Z,2.60
